createdAt,value
2018-01-12T00:00:05.320Z,2.90
2018-01-12T00:01:05.027Z,2.90
2018-01-12T00:02:04.842Z,2.90
2018-01-12T00:03:05.382Z,2.90
2018-01-12T00:04:05.070Z,2.90
2018-01-12T00:05:05.048Z,2.90
2018-01-12T00:06:05.481Z,2.90
2018-01-12T00:07:04.901Z,2.90
2018-01-12T00:08:04.674Z,2.90
2018-01-12T00:09:05.398Z,2.90
2018-01-12T00:10:05.295Z,2.90
2018-01-12T00:11:04.848Z,2.90
2018-01-12T00:12:04.888Z,2.90
2018-01-12T00:13:04.791Z,2.90
2018-01-12T00:14:05.151Z,2.90
2018-01-12T00:15:04.803Z,2.90
2018-01-12T00:16:05.461Z,2.90
2018-01-12T00:17:05.440Z,2.90
2018-01-12T00:18:04.952Z,2.90
2018-01-12T00:19:04.836Z,2.90
2018-01-12T00:20:04.776Z,2.90
2018-01-12T00:21:05.283Z,2.90
2018-01-12T00:22:05.365Z,2.90
2018-01-12T00:23:05.289Z,2.90
2018-01-12T00:24:05.177Z,3.00
2018-01-12T00:25:04.758Z,3.00
2018-01-12T00:26:04.658Z,2.90
2018-01-12T00:27:05.446Z,3.00
2018-01-12T00:28:05.045Z,2.90
2018-01-12T00:29:05.582Z,3.00
2018-01-12T00:30:05.516Z,3.00
2018-01-12T00:31:05.347Z,3.00
2018-01-12T00:32:05.019Z,3.00
2018-01-12T00:33:04.974Z,3.00
2018-01-12T00:34:04.766Z,3.00
2018-01-12T00:35:05.134Z,3.00
2018-01-12T00:36:05.215Z,3.00
2018-01-12T00:37:04.969Z,3.00
2018-01-12T00:38:04.593Z,3.00
2018-01-12T00:39:05.323Z,3.00
2018-01-12T00:40:04.840Z,3.00
2018-01-12T00:41:05.489Z,3.00
2018-01-12T00:42:04.989Z,3.00
2018-01-12T00:43:05.575Z,3.00
2018-01-12T00:44:05.385Z,3.00
2018-01-12T00:45:05.287Z,3.00
2018-01-12T00:46:05.364Z,3.00
2018-01-12T00:47:05.064Z,3.00
2018-01-12T00:48:04.703Z,3.00
2018-01-12T00:49:04.941Z,3.00
2018-01-12T00:50:05.397Z,3.00
2018-01-12T00:51:05.040Z,3.00
2018-01-12T00:52:05.521Z,3.00
2018-01-12T00:53:05.138Z,3.00
2018-01-12T00:54:05.555Z,3.00
2018-01-12T00:55:04.724Z,3.00
2018-01-12T00:56:05.142Z,3.00
2018-01-12T00:57:04.672Z,3.00
2018-01-12T00:58:05.266Z,3.00
2018-01-12T00:59:04.978Z,3.00
2018-01-12T01:00:04.859Z,3.00
2018-01-12T01:01:05.554Z,3.00
2018-01-12T01:02:05.570Z,3.00
2018-01-12T01:03:05.167Z,3.00
2018-01-12T01:04:05.070Z,3.00
2018-01-12T01:05:04.622Z,3.00
2018-01-12T01:06:05.518Z,3.00
2018-01-12T01:07:05.375Z,3.00
2018-01-12T01:08:05.236Z,2.90
2018-01-12T01:09:05.013Z,3.00
2018-01-12T01:10:05.690Z,2.90
2018-01-12T01:11:05.317Z,2.90
2018-01-12T01:12:04.991Z,2.90
2018-01-12T01:13:05.598Z,2.90
2018-01-12T01:14:05.156Z,2.90
2018-01-12T01:15:04.785Z,2.90
2018-01-12T01:16:04.689Z,2.90
2018-01-12T01:17:05.060Z,2.90
2018-01-12T01:18:05.123Z,2.90
2018-01-12T01:19:04.859Z,2.90
2018-01-12T01:20:05.375Z,2.90
2018-01-12T01:21:04.866Z,2.90
2018-01-12T01:22:05.488Z,2.90
2018-01-12T01:23:05.330Z,3.00
2018-01-12T01:24:05.386Z,2.90
2018-01-12T01:25:05.324Z,3.00
2018-01-12T01:26:04.936Z,3.00
2018-01-12T01:27:05.188Z,3.00
2018-01-12T01:28:04.915Z,3.00
2018-01-12T01:29:05.239Z,3.00
2018-01-12T01:30:05.589Z,3.00
2018-01-12T01:31:05.284Z,3.00
2018-01-12T01:32:05.453Z,3.00
2018-01-12T01:33:04.989Z,3.00
2018-01-12T01:34:04.741Z,3.00
2018-01-12T01:35:05.223Z,3.00
2018-01-12T01:36:05.059Z,3.00
2018-01-12T01:37:04.838Z,3.00
2018-01-12T01:38:04.997Z,3.00
2018-01-12T01:39:04.839Z,3.00
2018-01-12T01:40:04.848Z,3.00
2018-01-12T01:41:04.651Z,3.00
2018-01-12T01:42:04.708Z,3.00
2018-01-12T01:43:05.321Z,3.00
2018-01-12T01:44:04.716Z,3.00
2018-01-12T01:45:04.694Z,3.00
2018-01-12T01:46:05.366Z,3.00
2018-01-12T01:47:05.301Z,3.00
2018-01-12T01:48:04.851Z,3.00
2018-01-12T01:49:04.983Z,3.00
2018-01-12T01:50:05.635Z,3.00
2018-01-12T01:51:05.060Z,3.00
2018-01-12T01:52:04.705Z,3.00
2018-01-12T01:53:04.801Z,3.00
2018-01-12T01:54:05.060Z,3.00
2018-01-12T01:55:05.035Z,3.00
2018-01-12T01:56:05.633Z,3.00
2018-01-12T01:57:05.439Z,3.00
2018-01-12T01:58:05.337Z,2.90
2018-01-12T01:59:04.822Z,3.00
2018-01-12T02:00:05.320Z,2.90
2018-01-12T02:01:04.821Z,2.90
2018-01-12T02:02:05.019Z,2.90
2018-01-12T02:03:04.693Z,2.90
2018-01-12T02:04:04.780Z,2.90
2018-01-12T02:05:05.409Z,2.90
2018-01-12T02:06:04.728Z,2.90
2018-01-12T02:07:05.192Z,2.90
2018-01-12T02:08:04.945Z,2.90
2018-01-12T02:09:04.755Z,2.90
2018-01-12T02:10:04.806Z,2.90
2018-01-12T02:11:04.774Z,2.90
2018-01-12T02:12:04.995Z,2.90
2018-01-12T02:13:05.545Z,2.90
2018-01-12T02:14:05.437Z,2.80
2018-01-12T02:15:05.448Z,2.80
2018-01-12T02:16:05.341Z,2.80
2018-01-12T02:17:05.340Z,2.80
2018-01-12T02:18:04.774Z,2.80
2018-01-12T02:19:05.571Z,2.80
2018-01-12T02:20:05.223Z,2.80
2018-01-12T02:21:05.019Z,2.80
2018-01-12T02:22:05.496Z,2.80
2018-01-12T02:23:05.126Z,2.80
2018-01-12T02:24:04.946Z,2.80
2018-01-12T02:25:04.863Z,2.80
2018-01-12T02:26:05.554Z,2.80
2018-01-12T02:27:04.979Z,2.80
2018-01-12T02:28:05.572Z,2.80
2018-01-12T02:29:04.961Z,2.70
2018-01-12T02:30:04.914Z,2.70
2018-01-12T02:31:05.525Z,2.70
2018-01-12T02:32:05.007Z,2.70
2018-01-12T02:33:04.611Z,2.70
2018-01-12T02:34:04.726Z,2.70
2018-01-12T02:35:05.321Z,2.70
2018-01-12T02:36:04.728Z,2.70
2018-01-12T02:37:05.388Z,2.70
2018-01-12T02:38:04.950Z,2.70
2018-01-12T02:39:05.637Z,2.70
2018-01-12T02:40:05.451Z,2.70
2018-01-12T02:41:05.117Z,2.70
2018-01-12T02:42:04.969Z,2.70
2018-01-12T02:43:05.580Z,2.70
2018-01-12T02:44:05.592Z,2.70
2018-01-12T02:45:05.276Z,2.70
2018-01-12T02:46:04.812Z,2.70
2018-01-12T02:47:04.787Z,2.70
2018-01-12T02:48:05.401Z,2.70
2018-01-12T02:49:04.926Z,2.70
2018-01-12T02:50:05.412Z,2.70
2018-01-12T02:51:04.941Z,2.70
2018-01-12T02:52:04.695Z,2.70
2018-01-12T02:53:05.586Z,2.70
2018-01-12T02:54:04.945Z,2.70
2018-01-12T02:55:05.468Z,2.70
2018-01-12T02:56:04.835Z,2.70
2018-01-12T02:57:05.189Z,2.70
2018-01-12T02:58:04.970Z,2.70
2018-01-12T02:59:05.349Z,2.70
2018-01-12T03:00:04.994Z,2.70
2018-01-12T03:01:04.878Z,2.70
2018-01-12T03:02:04.735Z,2.70
2018-01-12T03:03:04.953Z,2.70
2018-01-12T03:04:04.778Z,2.70
2018-01-12T03:05:05.265Z,2.70
2018-01-12T03:06:04.902Z,2.70
2018-01-12T03:07:05.460Z,2.70
2018-01-12T03:08:04.735Z,2.70
2018-01-12T03:09:04.783Z,2.70
2018-01-12T03:10:04.850Z,2.70
2018-01-12T03:11:05.185Z,2.70
2018-01-12T03:12:05.639Z,2.70
2018-01-12T03:13:05.134Z,2.70
2018-01-12T03:14:04.757Z,2.70
2018-01-12T03:15:05.334Z,2.70
2018-01-12T03:16:04.948Z,2.70
2018-01-12T03:17:04.847Z,2.70
2018-01-12T03:18:05.373Z,2.70
2018-01-12T03:19:05.462Z,2.70
2018-01-12T03:20:05.188Z,2.70
2018-01-12T03:21:04.826Z,2.70
2018-01-12T03:22:04.700Z,2.70
2018-01-12T03:23:04.664Z,2.70
2018-01-12T03:24:05.183Z,2.70
2018-01-12T03:25:04.976Z,2.70
2018-01-12T03:26:05.677Z,2.70
2018-01-12T03:27:04.823Z,2.70
2018-01-12T03:28:05.235Z,2.70
2018-01-12T03:29:05.188Z,2.70
2018-01-12T03:30:04.850Z,2.80
2018-01-12T03:31:04.702Z,2.80
2018-01-12T03:32:05.523Z,2.80
2018-01-12T03:33:04.912Z,2.80
2018-01-12T03:34:05.406Z,2.80
2018-01-12T03:35:05.527Z,2.80
2018-01-12T03:36:04.987Z,2.80
2018-01-12T03:37:04.912Z,2.80
2018-01-12T03:38:05.393Z,2.80
2018-01-12T03:39:05.301Z,2.80
2018-01-12T03:40:05.422Z,2.80
2018-01-12T03:41:05.322Z,2.80
2018-01-12T03:42:05.525Z,2.80
2018-01-12T03:43:05.498Z,2.80
2018-01-12T03:44:05.099Z,2.80
2018-01-12T03:45:04.742Z,2.80
2018-01-12T03:46:04.750Z,2.80
2018-01-12T03:47:05.206Z,2.80
2018-01-12T03:48:05.153Z,2.80
2018-01-12T03:49:04.761Z,2.80
2018-01-12T03:50:05.384Z,2.80
2018-01-12T03:51:04.865Z,2.80
2018-01-12T03:52:04.913Z,2.80
2018-01-12T03:53:05.449Z,2.80
2018-01-12T03:54:05.409Z,2.80
2018-01-12T03:55:05.036Z,2.80
2018-01-12T03:56:05.582Z,2.80
2018-01-12T03:57:05.073Z,2.80
2018-01-12T03:58:04.920Z,2.80
2018-01-12T03:59:04.654Z,2.80
2018-01-12T04:00:05.115Z,2.90
2018-01-12T04:01:04.657Z,2.90
2018-01-12T04:02:05.596Z,2.90
2018-01-12T04:03:05.397Z,2.90
2018-01-12T04:04:04.999Z,2.90
2018-01-12T04:05:05.376Z,2.90
2018-01-12T04:06:04.844Z,2.90
2018-01-12T04:07:04.708Z,2.90
2018-01-12T04:08:05.182Z,2.90
2018-01-12T04:09:04.869Z,2.90
2018-01-12T04:10:04.901Z,2.90
2018-01-12T04:11:05.352Z,2.90
2018-01-12T04:12:05.059Z,2.90
2018-01-12T04:13:05.603Z,2.90
2018-01-12T04:14:05.233Z,2.90
2018-01-12T04:15:05.531Z,2.90
2018-01-12T04:16:05.492Z,2.90
2018-01-12T04:17:05.474Z,2.90
2018-01-12T04:18:05.065Z,2.90
2018-01-12T04:19:04.678Z,2.90
2018-01-12T04:20:05.191Z,2.90
2018-01-12T04:21:04.853Z,2.90
2018-01-12T04:22:05.433Z,2.90
2018-01-12T04:23:05.154Z,2.90
2018-01-12T04:24:04.827Z,2.90
2018-01-12T04:25:05.270Z,2.90
2018-01-12T04:26:04.635Z,2.90
2018-01-12T04:27:05.624Z,2.90
2018-01-12T04:28:05.335Z,2.90
2018-01-12T04:29:05.356Z,2.90
2018-01-12T04:30:04.758Z,2.90
2018-01-12T04:31:05.271Z,2.90
2018-01-12T04:32:05.576Z,2.90
2018-01-12T04:33:05.264Z,2.90
2018-01-12T04:34:05.457Z,2.90
2018-01-12T04:35:05.612Z,2.90
2018-01-12T04:36:04.610Z,2.90
2018-01-12T04:37:04.886Z,2.90
2018-01-12T04:38:05.374Z,3.00
2018-01-12T04:39:05.292Z,3.00
2018-01-12T04:40:05.137Z,3.00
2018-01-12T04:41:05.658Z,3.00
2018-01-12T04:42:04.707Z,3.00
2018-01-12T04:43:05.392Z,3.00
2018-01-12T04:44:05.127Z,3.00
2018-01-12T04:45:05.176Z,3.00
2018-01-12T04:46:05.074Z,3.00
2018-01-12T04:47:04.952Z,3.00
2018-01-12T04:48:04.956Z,3.00
2018-01-12T04:49:05.294Z,3.00
2018-01-12T04:50:05.186Z,3.00
2018-01-12T04:51:05.046Z,3.00
2018-01-12T04:52:04.940Z,3.00
2018-01-12T04:53:05.537Z,3.00
2018-01-12T04:54:04.955Z,3.00
2018-01-12T04:55:04.770Z,3.00
2018-01-12T04:56:05.392Z,3.00
2018-01-12T04:57:05.242Z,3.00
2018-01-12T04:58:04.894Z,3.00
2018-01-12T04:59:05.256Z,3.10
2018-01-12T05:00:04.879Z,3.10
2018-01-12T05:01:05.387Z,3.10
2018-01-12T05:02:04.849Z,3.10
2018-01-12T05:03:04.693Z,3.10
2018-01-12T05:04:05.349Z,3.10
2018-01-12T05:05:04.953Z,3.10
2018-01-12T05:06:04.891Z,3.10
2018-01-12T05:07:05.150Z,3.10
2018-01-12T05:08:05.118Z,3.10
2018-01-12T05:09:04.739Z,3.10
2018-01-12T05:10:05.457Z,3.10
2018-01-12T05:11:05.039Z,3.10
2018-01-12T05:12:05.388Z,3.10
2018-01-12T05:13:05.477Z,3.10
2018-01-12T05:14:05.363Z,3.10
2018-01-12T05:15:05.113Z,3.10
2018-01-12T05:16:04.680Z,3.10
2018-01-12T05:17:04.629Z,3.10
2018-01-12T05:18:05.347Z,3.10
2018-01-12T05:19:04.854Z,3.10
2018-01-12T05:20:05.351Z,3.10
2018-01-12T05:21:05.192Z,3.10
2018-01-12T05:22:05.221Z,3.10
2018-01-12T05:23:04.905Z,3.10
2018-01-12T05:24:04.725Z,3.10
2018-01-12T05:25:05.235Z,3.10
2018-01-12T05:26:04.740Z,3.10
2018-01-12T05:27:04.721Z,3.10
2018-01-12T05:28:05.433Z,3.10
2018-01-12T05:29:05.112Z,3.10
2018-01-12T05:30:05.733Z,3.10
2018-01-12T05:31:05.467Z,3.10
2018-01-12T05:32:05.493Z,3.10
2018-01-12T05:33:05.412Z,3.10
2018-01-12T05:34:05.090Z,3.10
2018-01-12T05:35:05.004Z,3.10
2018-01-12T05:36:09.977Z,3.10
2018-01-12T05:37:05.488Z,3.10
2018-01-12T05:38:05.155Z,3.10
2018-01-12T05:39:04.925Z,3.10
2018-01-12T05:40:05.511Z,3.10
2018-01-12T05:41:04.934Z,3.10
2018-01-12T05:42:04.830Z,3.10
2018-01-12T05:43:05.453Z,3.10
2018-01-12T05:44:04.966Z,3.10
2018-01-12T05:45:04.964Z,3.10
2018-01-12T05:46:05.137Z,3.20
2018-01-12T05:47:05.634Z,3.20
2018-01-12T05:48:05.314Z,3.20
2018-01-12T05:49:04.771Z,3.10
2018-01-12T05:50:05.627Z,3.10
2018-01-12T05:51:05.637Z,3.10
2018-01-12T05:52:05.455Z,3.20
2018-01-12T05:53:04.952Z,3.20
2018-01-12T05:54:05.564Z,3.20
2018-01-12T05:55:05.360Z,3.10
2018-01-12T05:56:04.835Z,3.20
2018-01-12T05:57:04.633Z,3.20
2018-01-12T05:58:04.605Z,3.20
2018-01-12T05:59:05.359Z,3.20
2018-01-12T06:00:04.793Z,3.20
2018-01-12T06:01:05.486Z,3.20
2018-01-12T06:02:04.910Z,3.20
2018-01-12T06:03:04.954Z,3.20
2018-01-12T06:04:04.813Z,3.20
2018-01-12T06:05:05.633Z,3.20
2018-01-12T06:06:05.445Z,3.20
2018-01-12T06:07:05.373Z,3.20
2018-01-12T06:08:05.234Z,3.20
2018-01-12T06:09:05.212Z,3.20
2018-01-12T06:10:05.055Z,3.20
2018-01-12T06:11:05.078Z,3.20
2018-01-12T06:12:04.857Z,3.20
2018-01-12T06:13:04.910Z,3.20
2018-01-12T06:14:05.408Z,3.20
2018-01-12T06:15:04.965Z,3.20
2018-01-12T06:16:04.842Z,3.20
2018-01-12T06:17:05.420Z,3.20
2018-01-12T06:18:05.396Z,3.20
2018-01-12T06:19:04.932Z,3.20
2018-01-12T06:20:04.940Z,3.20
2018-01-12T06:21:05.505Z,3.20
2018-01-12T06:22:05.381Z,3.20
2018-01-12T06:23:05.006Z,3.20
2018-01-12T06:24:05.535Z,3.20
2018-01-12T06:25:04.986Z,3.20
2018-01-12T06:26:05.064Z,3.20
2018-01-12T06:27:04.899Z,3.20
2018-01-12T06:28:05.404Z,3.20
2018-01-12T06:29:05.153Z,3.20
2018-01-12T06:30:04.728Z,3.20
2018-01-12T06:31:04.632Z,3.20
2018-01-12T06:32:05.232Z,3.20
2018-01-12T06:33:04.616Z,3.20
2018-01-12T06:34:05.224Z,3.20
2018-01-12T06:35:05.047Z,3.20
2018-01-12T06:36:05.468Z,3.20
2018-01-12T06:37:05.395Z,3.20
2018-01-12T06:38:05.246Z,3.20
2018-01-12T06:39:05.252Z,3.20
2018-01-12T06:40:05.153Z,3.20
2018-01-12T06:41:04.766Z,3.20
2018-01-12T06:42:05.519Z,3.20
2018-01-12T06:43:05.541Z,3.20
2018-01-12T06:44:05.128Z,3.20
2018-01-12T06:45:05.270Z,3.20
2018-01-12T06:46:05.015Z,3.20
2018-01-12T06:47:04.971Z,3.20
2018-01-12T06:48:05.593Z,3.20
2018-01-12T06:49:05.523Z,3.20
2018-01-12T06:50:05.448Z,3.20
2018-01-12T06:51:04.864Z,3.20
2018-01-12T06:52:05.604Z,3.20
2018-01-12T06:53:05.603Z,3.20
2018-01-12T06:54:04.815Z,3.20
2018-01-12T06:55:04.741Z,3.20
2018-01-12T06:56:05.401Z,3.20
2018-01-12T06:57:05.110Z,3.20
2018-01-12T06:58:04.913Z,3.20
2018-01-12T06:59:05.414Z,3.20
2018-01-12T07:00:04.898Z,3.20
2018-01-12T07:01:05.169Z,3.20
2018-01-12T07:02:04.794Z,3.20
2018-01-12T07:03:05.159Z,3.20
2018-01-12T07:04:04.853Z,3.30
2018-01-12T07:05:05.158Z,3.20
2018-01-12T07:06:04.874Z,3.30
2018-01-12T07:07:04.715Z,3.30
2018-01-12T07:08:04.608Z,3.20
2018-01-12T07:09:05.119Z,3.30
2018-01-12T07:10:05.044Z,3.30
2018-01-12T07:11:05.035Z,3.30
2018-01-12T07:12:04.637Z,3.30
2018-01-12T07:13:05.577Z,3.30
2018-01-12T07:14:05.535Z,3.30
2018-01-12T07:15:04.801Z,3.30
2018-01-12T07:16:05.439Z,3.30
2018-01-12T07:17:05.087Z,3.30
2018-01-12T07:18:05.564Z,3.30
2018-01-12T07:19:05.060Z,3.30
2018-01-12T07:20:09.951Z,3.30
2018-01-12T07:21:04.760Z,3.30
2018-01-12T07:22:05.235Z,3.30
2018-01-12T07:23:05.027Z,3.30
2018-01-12T07:24:04.866Z,3.30
2018-01-12T07:25:05.133Z,3.30
2018-01-12T07:26:04.683Z,3.30
2018-01-12T07:27:04.889Z,3.30
2018-01-12T07:28:04.642Z,3.30
2018-01-12T07:29:04.845Z,3.30
2018-01-12T07:30:05.471Z,3.30
2018-01-12T07:31:05.317Z,3.30
2018-01-12T07:32:05.425Z,3.30
2018-01-12T07:33:05.197Z,3.30
2018-01-12T07:34:04.640Z,3.30
2018-01-12T07:35:05.289Z,3.30
2018-01-12T07:36:04.866Z,3.30
2018-01-12T07:37:05.339Z,3.30
2018-01-12T07:38:05.103Z,3.30
2018-01-12T07:39:05.659Z,3.30
2018-01-12T07:40:05.157Z,3.30
2018-01-12T07:41:04.757Z,3.30
2018-01-12T07:42:05.290Z,3.30
2018-01-12T07:43:04.973Z,3.30
2018-01-12T07:44:05.032Z,3.30
2018-01-12T07:45:04.805Z,3.30
2018-01-12T07:46:05.562Z,3.30
2018-01-12T07:47:05.586Z,3.30
2018-01-12T07:48:04.783Z,3.40
2018-01-12T07:49:04.839Z,3.40
2018-01-12T07:50:04.796Z,3.40
2018-01-12T07:51:05.548Z,3.40
2018-01-12T07:52:05.463Z,3.40
2018-01-12T07:53:05.559Z,3.40
2018-01-12T07:54:05.208Z,3.40
2018-01-12T07:55:05.626Z,3.40
2018-01-12T07:56:05.604Z,3.40
2018-01-12T07:57:05.128Z,3.40
2018-01-12T07:58:05.066Z,3.40
2018-01-12T07:59:05.503Z,3.40
2018-01-12T08:00:05.158Z,3.40
2018-01-12T08:01:04.873Z,3.40
2018-01-12T08:02:05.629Z,3.40
2018-01-12T08:03:04.963Z,3.40
2018-01-12T08:04:04.847Z,3.40
2018-01-12T08:05:04.849Z,3.40
2018-01-12T08:06:04.763Z,3.40
2018-01-12T08:07:05.291Z,3.40
2018-01-12T08:08:05.259Z,3.40
2018-01-12T08:09:04.971Z,3.40
2018-01-12T08:10:04.837Z,3.40
2018-01-12T08:11:04.775Z,3.40
2018-01-12T08:12:05.604Z,3.40
2018-01-12T08:13:04.937Z,3.40
2018-01-12T08:14:04.820Z,3.40
2018-01-12T08:15:05.433Z,3.40
2018-01-12T08:16:05.544Z,3.40
2018-01-12T08:17:05.205Z,3.40
2018-01-12T08:18:05.241Z,3.40
2018-01-12T08:19:04.983Z,3.50
2018-01-12T08:20:04.777Z,3.40
2018-01-12T08:21:04.772Z,3.50
2018-01-12T08:22:04.843Z,3.50
2018-01-12T08:23:04.889Z,3.50
2018-01-12T08:24:05.468Z,3.50
2018-01-12T08:25:05.033Z,3.50
2018-01-12T08:26:04.849Z,3.50
2018-01-12T08:27:05.561Z,3.50
2018-01-12T08:28:05.446Z,3.50
2018-01-12T08:29:05.369Z,3.50
2018-01-12T08:30:05.011Z,3.50
2018-01-12T08:31:04.993Z,3.50
2018-01-12T08:32:04.977Z,3.50
2018-01-12T08:33:05.349Z,3.50
2018-01-12T08:34:05.016Z,3.50
2018-01-12T08:35:04.847Z,3.50
2018-01-12T08:36:04.740Z,3.50
2018-01-12T08:37:05.452Z,3.50
2018-01-12T08:38:05.307Z,3.50
2018-01-12T08:39:05.152Z,3.50
2018-01-12T08:40:04.905Z,3.50
2018-01-12T08:41:05.680Z,3.50
2018-01-12T08:42:05.114Z,3.50
2018-01-12T08:43:04.837Z,3.50
2018-01-12T08:44:05.219Z,3.60
2018-01-12T08:45:05.225Z,3.60
2018-01-12T08:46:04.966Z,3.60
2018-01-12T08:47:04.817Z,3.60
2018-01-12T08:48:04.713Z,3.60
2018-01-12T08:49:04.932Z,3.60
2018-01-12T08:50:05.459Z,3.60
2018-01-12T08:51:05.499Z,3.60
2018-01-12T08:52:05.048Z,3.60
2018-01-12T08:53:04.727Z,3.60
2018-01-12T08:54:05.404Z,3.60
2018-01-12T08:55:05.275Z,3.60
2018-01-12T08:56:05.141Z,3.60
2018-01-12T08:57:04.755Z,3.70
2018-01-12T08:58:04.777Z,3.60
2018-01-12T08:59:04.621Z,3.70
2018-01-12T09:00:05.349Z,3.60
2018-01-12T09:01:05.193Z,3.60
2018-01-12T09:02:04.880Z,3.70
2018-01-12T09:03:05.374Z,3.60
2018-01-12T09:04:04.896Z,3.70
2018-01-12T09:05:05.545Z,3.70
2018-01-12T09:06:05.528Z,3.60
2018-01-12T09:07:05.532Z,3.70
2018-01-12T09:08:05.166Z,3.60
2018-01-12T09:09:04.665Z,3.60
2018-01-12T09:10:05.289Z,3.60
2018-01-12T09:11:05.196Z,3.60
2018-01-12T09:12:05.504Z,3.60
2018-01-12T09:13:04.740Z,3.60
2018-01-12T09:14:05.457Z,3.60
2018-01-12T09:15:05.489Z,3.60
2018-01-12T09:16:05.420Z,3.60
2018-01-12T09:17:04.892Z,3.60
2018-01-12T09:18:05.698Z,3.60
2018-01-12T09:19:05.000Z,3.60
2018-01-12T09:20:04.684Z,3.60
2018-01-12T09:21:05.589Z,3.60
2018-01-12T09:22:05.387Z,3.60
2018-01-12T09:23:05.125Z,3.60
2018-01-12T09:24:05.613Z,3.60
2018-01-12T09:25:04.719Z,3.60
2018-01-12T09:26:05.384Z,3.60
2018-01-12T09:27:04.866Z,3.60
2018-01-12T09:28:05.407Z,3.60
2018-01-12T09:29:05.011Z,3.60
2018-01-12T09:30:04.722Z,3.60
2018-01-12T09:31:05.062Z,3.60
2018-01-12T09:32:05.012Z,3.60
2018-01-12T09:33:05.743Z,3.60
2018-01-12T09:34:05.211Z,3.60
2018-01-12T09:35:05.191Z,3.60
2018-01-12T09:36:04.718Z,3.60
2018-01-12T09:37:05.405Z,3.60
2018-01-12T09:38:04.978Z,3.60
2018-01-12T09:39:05.473Z,3.60
2018-01-12T09:40:04.863Z,3.60
2018-01-12T09:41:05.545Z,3.60
2018-01-12T09:42:04.828Z,3.60
2018-01-12T09:43:05.321Z,3.70
2018-01-12T09:44:05.406Z,3.60
2018-01-12T09:45:05.172Z,3.70
2018-01-12T09:46:04.976Z,3.70
2018-01-12T09:47:04.770Z,3.70
2018-01-12T09:48:05.276Z,3.70
2018-01-12T09:49:05.172Z,3.60
2018-01-12T09:50:04.838Z,3.60
2018-01-12T09:51:04.754Z,3.70
2018-01-12T09:52:04.762Z,3.70
2018-01-12T09:53:04.972Z,3.70
2018-01-12T09:54:04.714Z,3.70
2018-01-12T09:55:04.788Z,3.70
2018-01-12T09:56:05.229Z,3.70
2018-01-12T09:57:05.391Z,3.70
2018-01-12T09:58:04.876Z,3.70
2018-01-12T09:59:04.783Z,3.70
2018-01-12T10:00:04.616Z,3.70
2018-01-12T10:01:05.172Z,3.70
2018-01-12T10:02:04.743Z,3.70
2018-01-12T10:03:04.626Z,3.70
2018-01-12T10:04:05.596Z,3.70
2018-01-12T10:05:05.001Z,3.70
2018-01-12T10:06:05.087Z,3.70
2018-01-12T10:07:05.461Z,3.70
2018-01-12T10:08:04.930Z,3.70
2018-01-12T10:09:04.745Z,3.70
2018-01-12T10:10:04.718Z,3.70
2018-01-12T10:11:05.686Z,3.70
2018-01-12T10:12:05.426Z,3.70
2018-01-12T10:13:04.946Z,3.70
2018-01-12T10:14:04.898Z,3.70
2018-01-12T10:15:04.798Z,3.70
2018-01-12T10:16:05.211Z,3.70
2018-01-12T10:17:05.069Z,3.70
2018-01-12T10:18:05.569Z,3.70
2018-01-12T10:19:04.630Z,3.70
2018-01-12T10:20:05.161Z,3.70
2018-01-12T10:21:05.422Z,3.70
2018-01-12T10:22:05.091Z,3.70
2018-01-12T10:23:05.078Z,3.70
2018-01-12T10:24:05.227Z,3.70
2018-01-12T10:25:04.847Z,3.70
2018-01-12T10:26:04.665Z,3.70
2018-01-12T10:27:05.610Z,3.70
2018-01-12T10:28:05.466Z,3.70
2018-01-12T10:29:05.598Z,3.70
2018-01-12T10:30:05.671Z,3.70
2018-01-12T10:31:05.038Z,3.70
2018-01-12T10:32:05.067Z,3.70
2018-01-12T10:33:04.739Z,3.70
2018-01-12T10:34:05.439Z,3.80
2018-01-12T10:35:05.254Z,3.80
2018-01-12T10:36:05.483Z,3.70
2018-01-12T10:37:05.154Z,3.80
2018-01-12T10:38:05.035Z,3.80
2018-01-12T10:39:05.499Z,3.80
2018-01-12T10:40:04.938Z,3.80
2018-01-12T10:41:04.945Z,3.80
2018-01-12T10:42:04.668Z,3.80
2018-01-12T10:43:05.336Z,3.80
2018-01-12T10:44:05.273Z,3.80
2018-01-12T10:45:05.426Z,3.80
2018-01-12T10:46:04.937Z,3.80
2018-01-12T10:47:05.543Z,3.80
2018-01-12T10:48:05.031Z,3.80
2018-01-12T10:49:04.903Z,3.80
2018-01-12T10:50:04.943Z,3.80
2018-01-12T10:51:05.535Z,3.80
2018-01-12T10:52:05.010Z,3.80
2018-01-12T10:53:05.120Z,3.80
2018-01-12T10:54:05.632Z,3.80
2018-01-12T10:55:05.131Z,3.80
2018-01-12T10:56:05.476Z,3.80
2018-01-12T10:57:05.045Z,3.80
2018-01-12T10:58:05.206Z,3.80
2018-01-12T10:59:04.872Z,3.80
2018-01-12T11:00:04.874Z,3.80
2018-01-12T11:01:05.068Z,3.80
2018-01-12T11:02:04.933Z,3.80
2018-01-12T11:03:04.921Z,3.90
2018-01-12T11:04:05.389Z,3.80
2018-01-12T11:05:05.243Z,3.80
2018-01-12T11:06:04.857Z,3.80
2018-01-12T11:07:05.126Z,3.90
2018-01-12T11:08:04.918Z,3.90
2018-01-12T11:09:05.372Z,3.90
2018-01-12T11:10:05.042Z,3.90
2018-01-12T11:11:05.112Z,3.90
2018-01-12T11:12:05.021Z,3.90
2018-01-12T11:13:04.832Z,3.90
2018-01-12T11:14:05.597Z,3.90
2018-01-12T11:15:05.047Z,3.90
2018-01-12T11:16:05.605Z,3.90
2018-01-12T11:17:05.184Z,3.90
2018-01-12T11:18:05.543Z,3.90
2018-01-12T11:19:05.133Z,3.90
2018-01-12T11:20:05.317Z,4.00
2018-01-12T11:21:05.297Z,4.00
2018-01-12T11:22:05.172Z,4.00
2018-01-12T11:23:05.573Z,4.00
2018-01-12T11:24:05.203Z,4.00
2018-01-12T11:25:04.858Z,4.00
2018-01-12T11:26:04.715Z,4.00
2018-01-12T11:27:04.679Z,4.00
2018-01-12T11:28:05.156Z,4.00
2018-01-12T11:29:05.036Z,4.00
2018-01-12T11:30:04.763Z,4.00
2018-01-12T11:31:05.086Z,4.00
2018-01-12T11:32:04.905Z,4.00
2018-01-12T11:33:05.680Z,4.10
2018-01-12T11:34:05.292Z,4.10
2018-01-12T11:35:04.734Z,4.10
2018-01-12T11:36:05.404Z,4.10
2018-01-12T11:37:04.852Z,4.10
2018-01-12T11:38:05.380Z,4.10
2018-01-12T11:39:04.866Z,4.10
2018-01-12T11:40:05.948Z,4.10
2018-01-12T11:41:04.942Z,4.20
2018-01-12T11:42:05.425Z,4.20
2018-01-12T11:43:05.404Z,4.20
2018-01-12T11:44:04.875Z,4.20
2018-01-12T11:45:05.044Z,4.20
2018-01-12T11:46:04.981Z,4.20
2018-01-12T11:47:04.999Z,4.20
2018-01-12T11:49:05.455Z,4.20
2018-01-12T11:50:05.221Z,4.20
2018-01-12T11:51:04.939Z,4.20
2018-01-12T11:52:05.596Z,4.20
2018-01-12T11:53:05.276Z,4.20
2018-01-12T11:54:04.762Z,4.20
2018-01-12T11:55:04.776Z,4.20
2018-01-12T11:56:05.253Z,4.20
2018-01-12T11:57:04.966Z,4.20
2018-01-12T11:58:05.573Z,4.20
2018-01-12T11:59:05.711Z,4.20
2018-01-12T12:00:04.731Z,4.20
2018-01-12T12:01:05.239Z,4.20
2018-01-12T12:02:04.889Z,4.20
2018-01-12T12:03:05.477Z,4.20
2018-01-12T12:04:04.903Z,4.20
2018-01-12T12:05:04.954Z,4.20
2018-01-12T12:06:04.871Z,4.20
2018-01-12T12:07:05.390Z,4.20
2018-01-12T12:08:05.340Z,4.20
2018-01-12T12:09:04.863Z,4.20
2018-01-12T12:10:05.568Z,4.20
2018-01-12T12:11:05.122Z,4.30
2018-01-12T12:12:04.802Z,4.30
2018-01-12T12:13:05.031Z,4.20
2018-01-12T12:14:04.659Z,4.30
2018-01-12T12:15:04.984Z,4.30
2018-01-12T12:16:05.021Z,4.30
2018-01-12T12:17:05.065Z,4.30
2018-01-12T12:18:04.836Z,4.30
2018-01-12T12:19:05.235Z,4.30
2018-01-12T12:20:05.200Z,4.30
2018-01-12T12:21:05.048Z,4.30
2018-01-12T12:22:05.075Z,4.30
2018-01-12T12:23:04.687Z,4.30
2018-01-12T12:24:04.883Z,4.30
2018-01-12T12:25:04.819Z,4.30
2018-01-12T12:26:05.557Z,4.30
2018-01-12T12:27:05.534Z,4.30
2018-01-12T12:28:05.262Z,4.30
2018-01-12T12:29:05.180Z,4.30
2018-01-12T12:30:05.463Z,4.30
2018-01-12T12:31:04.916Z,4.30
2018-01-12T12:32:05.448Z,4.30
2018-01-12T12:33:05.108Z,4.30
2018-01-12T12:34:04.803Z,4.30
2018-01-12T12:35:05.524Z,4.30
2018-01-12T12:36:05.670Z,4.30
2018-01-12T12:37:05.446Z,4.30
2018-01-12T12:38:05.342Z,4.30
2018-01-12T12:39:04.753Z,4.40
2018-01-12T12:40:05.046Z,4.30
2018-01-12T12:41:05.442Z,4.30
2018-01-12T12:42:04.907Z,4.30
2018-01-12T12:43:05.168Z,4.30
2018-01-12T12:44:05.155Z,4.30
2018-01-12T12:45:05.590Z,4.30
2018-01-12T12:46:05.317Z,4.40
2018-01-12T12:47:04.803Z,4.40
2018-01-12T12:48:05.708Z,4.30
2018-01-12T12:49:05.137Z,4.40
2018-01-12T12:50:05.317Z,4.40
2018-01-12T12:51:05.110Z,4.40
2018-01-12T12:52:05.125Z,4.40
2018-01-12T12:53:04.968Z,4.40
2018-01-12T12:54:05.386Z,4.40
2018-01-12T12:55:04.968Z,4.40
2018-01-12T12:56:04.925Z,4.40
2018-01-12T12:57:05.559Z,4.40
2018-01-12T12:58:05.383Z,4.40
2018-01-12T12:59:04.741Z,4.40
2018-01-12T13:00:05.528Z,4.40
2018-01-12T13:01:05.575Z,4.40
2018-01-12T13:02:05.116Z,4.40
2018-01-12T13:03:04.737Z,4.40
2018-01-12T13:04:05.558Z,4.40
2018-01-12T13:05:05.395Z,4.40
2018-01-12T13:06:04.894Z,4.40
2018-01-12T13:07:05.407Z,4.40
2018-01-12T13:08:05.311Z,4.40
2018-01-12T13:09:05.368Z,4.40
2018-01-12T13:10:04.895Z,4.40
2018-01-12T13:11:05.126Z,4.40
2018-01-12T13:12:05.461Z,4.40
2018-01-12T13:13:05.640Z,4.40
2018-01-12T13:14:05.101Z,4.40
2018-01-12T13:15:04.688Z,4.40
2018-01-12T13:16:05.290Z,4.40
2018-01-12T13:17:05.000Z,4.40
2018-01-12T13:18:05.152Z,4.40
2018-01-12T13:19:05.074Z,4.40